Time;durP1;ratioP1;P1;durP2;ratioP2;P2;SDS_P1;SDS_P2;PMS_P1;PMS_P2;Temp;Humidity;BMP_temperature;BMP_pressure;BME280_temperature;BME280_humidity;BME280_pressure;Samples;Min_cycle;Max_cycle;Signal;HPM_P1;HPM_P2
2022/10/08 00:00:11;;;;;;;5.20;2.40;;;;;;;12.00;63.28;100388.75;24471;1328;3029636;-62
2022/10/08 00:02:42;;;;;;;6.60;2.20;;;;;;;12.01;63.49;100388.70;24503;1334;3054106;-64
2022/10/08 00:05:11;;;;;;;8.40;2.50;;;;;;;11.97;63.39;100390.64;24474;1330;3029250;-65
2022/10/08 00:07:43;;;;;;;5.70;2.90;;;;;;;11.95;63.70;100386.55;24481;1333;3051685;-63
2022/10/08 00:10:13;;;;;;;7.30;2.80;;;;;;;11.90;63.92;100383.75;24498;1338;3027890;-62
2022/10/08 00:12:50;;;;;;;4.90;2.50;;;;;;;11.78;64.78;100381.08;24489;1334;3049382;-63
2022/10/08 00:15:20;;;;;;;7.50;3.00;;;;;;;11.74;65.10;100382.48;24445;1334;3029615;-63
2022/10/08 00:17:49;;;;;;;5.20;2.70;;;;;;;11.67;65.72;100384.05;24455;1338;3028286;-64
2022/10/08 00:20:19;;;;;;;6.90;2.90;;;;;;;11.64;65.63;100387.75;24443;1340;3028420;-65
2022/10/08 00:22:48;;;;;;;4.30;2.30;;;;;;;11.62;65.70;100384.87;24465;1338;3068664;-66
2022/10/08 00:25:18;;;;;;;5.50;2.50;;;;;;;11.59;65.69;100387.07;24579;1333;3026740;-64
2022/10/08 00:27:47;;;;;;;6.10;2.90;;;;;;;11.54;66.21;100383.30;24485;1330;3027910;-63
2022/10/08 00:30:16;;;;;;;4.40;2.70;;;;;;;11.52;66.13;100382.19;24514;1339;3068933;-65
2022/10/08 00:32:45;;;;;;;4.10;2.40;;;;;;;11.57;65.48;100375.79;24459;1337;3027192;-66
2022/10/08 00:35:16;;;;;;;5.00;2.80;;;;;;;11.56;65.70;100373.55;24520;1332;3050056;-64
2022/10/08 00:37:45;;;;;;;6.30;2.80;;;;;;;11.51;66.11;100376.61;24442;1333;3030408;-62
2022/10/08 00:40:15;;;;;;;6.20;2.60;;;;;;;11.44;66.53;100371.19;24486;1338;3052779;-63
2022/10/08 00:42:44;;;;;;;6.20;2.60;;;;;;;11.40;66.53;100367.50;24506;1340;3028046;-65
2022/10/08 00:45:14;;;;;;;9.80;2.80;;;;;;;11.41;66.59;100365.70;24476;1330;3029878;-65
2022/10/08 00:47:49;;;;;;;5.80;2.70;;;;;;;11.44;65.85;100359.27;24490;1333;3026405;-65
2022/10/08 00:50:19;;;;;;;3.90;2.40;;;;;;;11.44;65.94;100361.55;24494;1341;3050257;-63
2022/10/08 00:52:53;;;;;;;5.60;2.40;;;;;;;11.41;66.10;100361.45;24439;1335;3028207;-64
2022/10/08 00:55:22;;;;;;;3.80;2.20;;;;;;;11.44;65.67;100362.59;24486;1330;3051966;-65
2022/10/08 00:57:51;;;;;;;6.00;3.00;;;;;;;11.41;66.30;100358.85;24537;1340;3029529;-63
2022/10/08 01:00:24;;;;;;;7.10;2.70;;;;;;;11.35;66.49;100358.30;24519;1340;3029685;-67
2022/10/08 01:02:53;;;;;;;4.80;2.50;;;;;;;11.36;66.35;100360.52;24531;1334;3026304;-63
2022/10/08 01:05:33;;;;;;;6.20;2.60;;;;;;;11.37;66.31;100362.95;24502;1331;3028330;-68
2022/10/08 01:08:05;;;;;;;6.50;2.30;;;;;;;11.35;66.31;100360.35;24449;1340;3052840;-65
2022/10/08 01:11:19;;;;;;;7.00;2.70;;;;;;;11.35;66.13;100360.20;24519;1339;3028183;-64
2022/10/08 01:14:24;;;;;;;4.80;2.70;;;;;;;11.36;66.11;100357.86;24427;1330;3070708;-66
2022/10/08 01:17:01;;;;;;;4.60;2.70;;;;;;;11.32;66.11;100358.42;24542;1338;3051842;-65
2022/10/08 01:19:50;;;;;;;4.40;2.60;;;;;;;11.29;66.20;100358.93;24473;1330;3057497;-68
2022/10/08 01:22:44;;;;;;;6.70;2.90;;;;;;;11.27;66.40;100361.66;24480;1336;3052713;-66
2022/10/08 01:25:33;;;;;;;6.90;2.60;;;;;;;11.25;66.36;100359.82;24579;1337;3053371;-65
2022/10/08 01:28:23;;;;;;;7.40;2.70;;;;;;;11.18;66.81;100356.66;24525;1332;3051781;-67
2022/10/08 01:31:19;;;;;;;6.00;2.40;;;;;;;11.12;67.13;100357.10;24527;1335;3051738;-64
2022/10/08 01:34:14;;;;;;;4.80;2.70;;;;;;;11.09;67.65;100357.45;24486;1329;3051082;-66
2022/10/08 01:36:47;;;;;;;7.50;2.60;;;;;;;11.10;67.27;100358.30;24512;1334;3070309;-67
2022/10/08 01:39:17;;;;;;;6.30;3.00;;;;;;;11.10;67.17;100357.77;24499;1335;3026860;-64
2022/10/08 01:41:57;;;;;;;5.70;2.70;;;;;;;11.09;67.12;100358.66;24503;1327;3029085;-65
2022/10/08 01:44:42;;;;;;;5.90;2.90;;;;;;;11.07;67.36;100361.05;24470;1337;3053692;-64
2022/10/08 01:47:15;;;;;;;7.90;2.90;;;;;;;11.08;67.30;100362.41;24484;1332;3053528;-65
2022/10/08 01:50:04;;;;;;;5.80;2.70;;;;;;;11.06;67.56;100361.27;24488;1333;3052224;-68
2022/10/08 01:52:39;;;;;;;8.90;2.60;;;;;;;11.00;67.88;100361.38;24566;1333;3053360;-64
2022/10/08 01:55:21;;;;;;;5.30;2.80;;;;;;;10.95;68.12;100360.92;24533;1334;3049462;-66
2022/10/08 01:57:50;;;;;;;4.60;2.60;;;;;;;10.95;67.69;100370.73;24603;1324;3069336;-64
2022/10/08 02:00:19;;;;;;;3.80;2.60;;;;;;;10.93;68.38;100368.36;24532;1333;3026181;-64
2022/10/08 02:02:48;;;;;;;10.20;3.60;;;;;;;10.90;68.30;100370.98;24559;1337;3050612;-67
2022/10/08 02:05:17;;;;;;;5.50;3.00;;;;;;;10.83;68.68;100370.79;24535;1333;3026982;-66
2022/10/08 15:12:25;;;;;;;4.80;3.00;;;;;;;20.16;45.04;99866.33;30977;1336;3013627;-69
2022/10/08 15:14:56;;;;;;;5.00;2.90;;;;;;;19.99;45.44;99868.88;24554;1330;3027632;-68
2022/10/08 15:17:26;;;;;;;6.30;3.30;;;;;;;19.89;45.72;99874.73;24563;1337;3026658;-70
2022/10/08 15:19:56;;;;;;;6.80;2.90;;;;;;;19.79;46.17;99875.64;24443;1331;3025257;-72
2022/10/08 15:22:25;;;;;;;5.70;3.20;;;;;;;19.70;46.28;99880.35;24484;1343;3068233;-71
2022/10/08 15:24:54;;;;;;;8.20;3.00;;;;;;;19.55;46.80;99880.30;23837;1333;3977434;-71
2022/10/08 15:27:48;;;;;;;4.70;2.90;;;;;;;19.40;47.19;99882.96;24527;1341;3050054;-70
2022/10/08 15:30:17;;;;;;;4.70;2.70;;;;;;;19.36;47.13;99883.80;24579;1331;3026488;-72
2022/10/08 15:32:50;;;;;;;5.90;3.10;;;;;;;19.30;47.41;99884.39;24592;1331;3053157;-70
2022/10/08 15:35:21;;;;;;;5.20;3.10;;;;;;;19.16;47.83;99883.88;24543;1334;3028176;-70
2022/10/08 15:37:50;;;;;;;6.50;3.00;;;;;;;19.08;47.94;99886.34;24656;1324;3027024;-69
2022/10/08 15:40:19;;;;;;;5.30;2.60;;;;;;;18.99;48.27;99886.94;24588;1330;3052936;-70
2022/10/08 15:42:50;;;;;;;4.80;2.90;;;;;;;18.94;48.12;99891.28;24638;1331;3026606;-70
2022/10/08 15:45:19;;;;;;;7.60;2.90;;;;;;;18.85;48.62;99889.99;24524;1330;3026106;-68
2022/10/08 15:47:48;;;;;;;6.50;3.50;;;;;;;18.80;48.49;99889.98;24630;1336;3026515;-69
2022/10/08 15:50:17;;;;;;;4.50;3.00;;;;;;;18.68;49.09;99897.80;24537;1333;3049691;-69
2022/10/08 15:52:46;;;;;;;7.80;3.80;;;;;;;18.59;49.14;99905.20;24591;1330;3026415;-69
2022/10/08 15:55:15;;;;;;;10.30;4.30;;;;;;;18.49;50.01;99907.09;24559;1331;3051693;-68
2022/10/08 15:57:46;;;;;;;8.10;3.40;;;;;;;18.35;50.28;99910.64;24610;1334;3027394;-73
2022/10/08 16:00:15;;;;;;;7.50;4.20;;;;;;;18.30;50.25;99913.02;24561;1331;3025803;-71
2022/10/08 16:02:44;;;;;;;7.10;4.30;;;;;;;18.21;50.59;99913.55;24610;1325;3053404;-70
2022/10/08 16:05:13;;;;;;;9.20;3.90;;;;;;;18.13;50.79;99915.67;24574;1323;3026052;-73
2022/10/08 16:07:44;;;;;;;6.30;4.30;;;;;;;18.04;51.05;99918.73;24607;1323;3050739;-72
2022/10/08 16:10:13;;;;;;;7.70;4.50;;;;;;;17.95;51.62;99924.83;24566;1331;3026510;-68
2022/10/08 16:12:44;;;;;;;6.20;4.40;;;;;;;17.83;52.14;99925.40;24623;1331;3026775;-73
2022/10/08 16:15:13;;;;;;;9.90;4.10;;;;;;;17.76;52.23;99923.52;24560;1324;3025911;-71
2022/10/08 16:17:42;;;;;;;6.10;4.00;;;;;;;17.73;51.96;99921.27;24630;1328;3051232;-71
2022/10/08 16:20:11;;;;;;;7.40;4.10;;;;;;;17.70;52.23;99918.02;24580;1325;3027054;-69
2022/10/08 16:22:39;;;;;;;10.50;3.90;;;;;;;17.65;52.50;99920.04;24616;1331;3049146;-72
2022/10/08 16:25:08;;;;;;;6.60;4.60;;;;;;;17.60;52.67;99925.42;24606;1317;3025895;-70
2022/10/08 16:27:38;;;;;;;7.60;4.50;;;;;;;17.50;53.11;99923.93;24615;1331;3052677;-74
2022/10/08 16:30:07;;;;;;;8.60;4.90;;;;;;;17.39;53.46;99927.79;24572;1324;3028711;-74
2022/10/08 16:32:36;;;;;;;7.00;4.30;;;;;;;17.28;54.16;99927.45;24652;1324;3051509;-72
2022/10/08 16:35:05;;;;;;;7.20;4.20;;;;;;;17.22;53.71;99928.64;24576;1324;3029753;-72
2022/10/08 16:37:34;;;;;;;8.90;4.90;;;;;;;17.15;54.36;99926.75;24581;1334;3056930;-74
2022/10/08 16:40:04;;;;;;;12.40;5.20;;;;;;;17.05;54.75;99928.99;24575;1331;3026411;-72
2022/10/08 16:42:33;;;;;;;8.90;4.40;;;;;;;16.95;54.97;99931.02;24578;1323;3049426;-70
2022/10/08 16:45:02;;;;;;;8.30;5.00;;;;;;;16.89;55.26;99933.23;24631;1317;3028435;-73
2022/10/08 16:47:31;;;;;;;7.50;4.80;;;;;;;16.82;55.24;99937.64;24520;1331;3068003;-69
2022/10/08 16:50:00;;;;;;;9.30;4.70;;;;;;;16.78;55.23;99936.17;24674;1331;3027883;-72
2022/10/08 16:52:29;;;;;;;11.80;5.00;;;;;;;16.71;55.61;99935.29;24571;1331;3050299;-69
2022/10/08 16:54:58;;;;;;;9.00;5.10;;;;;;;16.62;56.20;99936.38;24613;1323;3027222;-71
2022/10/08 16:57:27;;;;;;;11.00;5.30;;;;;;;16.53;56.44;99935.16;24617;1331;3052091;-71
2022/10/08 16:59:58;;;;;;;12.60;5.10;;;;;;;16.49;56.62;99938.66;24599;1317;3026512;-67
2022/10/08 17:02:28;;;;;;;11.30;4.80;;;;;;;16.40;57.04;99939.81;24592;1334;3050633;-69
2022/10/08 17:04:58;;;;;;;9.50;5.60;;;;;;;16.36;57.06;99939.80;24581;1337;3027429;-71
2022/10/08 17:07:32;;;;;;;12.80;5.50;;;;;;;16.27;57.89;99942.23;24586;1333;3026429;-71
2022/10/08 17:10:01;;;;;;;12.10;5.10;;;;;;;16.21;57.68;99941.80;24554;1334;3027753;-71
2022/10/08 17:12:34;;;;;;;13.40;5.00;;;;;;;16.16;58.06;99942.04;24607;1331;3028165;-68
2022/10/08 17:15:05;;;;;;;10.90;5.30;;;;;;;16.10;58.04;99939.84;24561;1332;3026690;-71
2022/10/08 17:17:37;;;;;;;10.60;5.00;;;;;;;16.03;58.37;99939.31;24547;1329;3026464;-70
2022/10/08 17:20:07;;;;;;;11.80;5.10;;;;;;;15.97;58.50;99938.55;24563;1331;3028167;-72
2022/10/08 17:22:36;;;;;;;11.80;5.30;;;;;;;15.92;58.36;99940.68;24573;1325;3027883;-70
2022/10/08 17:25:06;;;;;;;7.90;5.00;;;;;;;15.93;58.16;99940.05;24630;1324;3026271;-72
2022/10/08 17:27:36;;;;;;;9.30;4.80;;;;;;;15.87;58.76;99940.35;24672;1331;3028462;-69
2022/10/08 17:30:05;;;;;;;10.90;5.10;;;;;;;15.80;58.93;99938.90;24552;1326;3025739;-66
2022/10/08 17:32:36;;;;;;;9.40;4.40;;;;;;;15.75;58.74;99933.05;24615;1331;3052501;-70
2022/10/08 17:35:06;;;;;;;8.70;4.40;;;;;;;15.67;59.13;99927.85;24610;1324;3029452;-69
2022/10/08 17:37:35;;;;;;;9.90;4.80;;;;;;;15.60;59.20;99924.31;24567;1331;3052542;-70
2022/10/08 17:40:05;;;;;;;10.30;4.80;;;;;;;15.55;59.43;99922.71;24608;1331;3025327;-64
2022/10/08 17:42:34;;;;;;;11.70;5.50;;;;;;;15.51;59.64;99924.95;24572;1343;3054891;-68
2022/10/08 17:45:28;;;;;;;;;;;;;;;15.46;59.75;99919.31;24587;1331;3051914;-69
2022/10/08 17:47:57;;;;;;;8.60;4.50;;;;;;;15.36;59.87;99916.68;24554;1331;3026462;-69
2022/10/08 17:50:26;;;;;;;8.70;4.90;;;;;;;15.32;60.24;99920.77;24547;1334;3053459;-65
2022/10/08 17:52:55;;;;;;;7.50;4.80;;;;;;;15.29;60.08;99915.67;24576;1323;3029460;-69
2022/10/08 17:55:24;;;;;;;9.00;5.10;;;;;;;15.24;60.22;99918.63;24547;1324;3052828;-67
2022/10/08 17:57:54;;;;;;;6.40;4.40;;;;;;;15.22;60.30;99917.92;24611;1324;3025435;-67
2022/10/08 18:00:24;;;;;;;9.30;4.60;;;;;;;15.19;60.39;99912.14;24629;1331;3056643;-69
2022/10/08 18:02:53;;;;;;;6.80;4.40;;;;;;;15.12;60.83;99910.50;24501;1331;3028886;-68
2022/10/08 18:05:22;;;;;;;11.00;4.60;;;;;;;15.09;60.74;99911.59;24578;1331;3026188;-71
2022/10/08 18:07:52;;;;;;;8.60;4.40;;;;;;;15.05;60.97;99913.63;24588;1323;3056195;-66
2022/10/08 18:10:21;;;;;;;9.80;4.60;;;;;;;15.03;61.02;99914.67;24568;1324;3029613;-68
2022/10/08 18:12:55;;;;;;;6.50;4.00;;;;;;;15.00;61.00;99913.14;24587;1339;3051225;-69
2022/10/08 18:15:24;;;;;;;10.70;4.50;;;;;;;15.00;60.85;99916.35;24603;1331;3025927;-68
2022/10/08 18:17:54;;;;;;;7.70;4.70;;;;;;;14.98;60.98;99912.95;24598;1333;3069473;-68
2022/10/08 18:20:23;;;;;;;6.70;4.40;;;;;;;14.94;61.29;99908.27;24642;1323;3027542;-71
2022/10/08 18:22:53;;;;;;;8.10;4.70;;;;;;;14.90;61.39;99911.20;24569;1341;3049856;-71
2022/10/08 18:25:22;;;;;;;7.70;4.60;;;;;;;14.88;61.23;99912.05;24608;1324;3026674;-68
2022/10/08 18:27:54;;;;;;;7.80;4.80;;;;;;;14.85;61.24;99912.61;24570;1323;3052121;-67
2022/10/08 18:30:27;;;;;;;7.90;4.60;;;;;;;14.80;61.33;99907.15;24544;1331;3048785;-74
2022/10/08 18:32:56;;;;;;;9.30;4.90;;;;;;;14.77;61.63;99901.59;24609;1331;3026367;-68
2022/10/08 18:35:31;;;;;;;10.70;4.40;;;;;;;14.75;61.80;99902.77;24619;1331;3052643;-70
2022/10/08 18:38:00;;;;;;;8.80;5.00;;;;;;;14.69;62.01;99900.73;24587;1331;3028831;-70
2022/10/08 18:40:29;;;;;;;6.30;4.20;;;;;;;14.65;62.23;99898.38;24552;1323;3025954;-68
2022/10/08 18:42:59;;;;;;;7.90;4.80;;;;;;;14.61;62.01;99894.72;24554;1341;3052030;-70
2022/10/08 18:45:28;;;;;;;7.60;4.40;;;;;;;14.59;62.27;99899.25;24658;1324;3026036;-70
2022/10/08 18:49:58;;;;;;;9.00;4.50;;;;;;;14.54;62.41;99896.23;30860;1340;3014799;-70
2022/10/08 18:52:28;;;;;;;8.40;4.60;;;;;;;14.52;62.21;99898.48;24485;1339;3026776;-68
2022/10/08 18:54:59;;;;;;;9.00;4.50;;;;;;;14.51;62.23;99898.77;24487;1340;3029056;-66
2022/10/08 18:57:29;;;;;;;7.20;4.50;;;;;;;14.48;62.50;99899.84;24514;1343;3025972;-70
2022/10/08 18:59:58;;;;;;;8.00;4.10;;;;;;;14.46;62.59;99898.95;24558;1336;3025344;-69
2022/10/08 19:02:24;;;;;;;6.80;4.40;;;;;;;14.43;62.64;99900.73;23832;1339;4620769;-69
2022/10/08 19:04:57;;;;;;;10.00;4.90;;;;;;;14.40;62.70;99903.39;24628;1331;3048131;-70
2022/10/08 19:07:26;;;;;;;8.90;4.90;;;;;;;14.35;62.86;99900.20;24560;1324;3026424;-68
2022/10/08 19:09:56;;;;;;;9.10;4.60;;;;;;;14.33;62.86;99902.83;24582;1332;3026732;-68
2022/10/08 19:12:26;;;;;;;12.10;4.80;;;;;;;14.28;63.00;99901.94;24560;1336;3048736;-70
2022/10/08 19:14:56;;;;;;;8.20;4.30;;;;;;;14.26;63.25;99900.69;24543;1332;3029067;-70
2022/10/08 19:17:26;;;;;;;7.00;4.40;;;;;;;14.21;63.31;99905.57;24549;1343;3027855;-71
2022/10/08 19:19:57;;;;;;;7.50;4.30;;;;;;;14.22;63.04;99902.54;24554;1333;3026298;-72
2022/10/08 19:22:27;;;;;;;10.90;4.60;;;;;;;14.21;62.79;99899.41;24575;1332;3026748;-70
2022/10/08 19:24:56;;;;;;;8.30;4.40;;;;;;;14.17;63.25;99899.86;24556;1329;3026507;-69
2022/10/08 19:27:26;;;;;;;8.70;4.50;;;;;;;14.16;63.35;99898.56;24569;1333;3056334;-66
2022/10/08 19:29:55;;;;;;;7.10;4.10;;;;;;;14.12;63.49;99894.06;24551;1333;3029684;-71
2022/10/08 19:32:25;;;;;;;8.20;4.40;;;;;;;14.10;63.16;99896.10;24502;1336;3028362;-65
2022/10/08 19:34:54;;;;;;;9.10;4.70;;;;;;;14.07;63.21;99894.02;24549;1333;3029842;-66
2022/10/08 19:37:23;;;;;;;6.70;4.30;;;;;;;14.06;63.43;99892.70;24523;1326;3053100;-68
2022/10/08 19:39:52;;;;;;;8.00;4.50;;;;;;;14.02;63.50;99889.95;24582;1326;3028423;-71
2022/10/08 19:42:21;;;;;;;9.10;4.30;;;;;;;14.01;63.32;99890.22;24529;1333;3057000;-68
2022/10/08 19:44:54;;;;;;;6.90;4.30;;;;;;;14.03;62.70;99895.88;24610;1326;3030117;-67
2022/10/08 19:47:23;;;;;;;9.20;4.80;;;;;;;13.96;63.70;99893.56;24505;1342;3026033;-69
2022/10/08 19:49:52;;;;;;;8.00;4.90;;;;;;;13.92;63.64;99898.05;24593;1342;3057888;-68
2022/10/08 19:52:20;;;;;;;7.30;4.30;;;;;;;13.91;63.81;99898.98;24558;1328;3027181;-66
2022/10/08 19:54:49;;;;;;;8.40;5.00;;;;;;;13.92;63.55;99895.23;24505;1342;3051214;-67
2022/10/08 19:57:18;;;;;;;10.80;5.40;;;;;;;13.85;63.99;99891.80;24579;1334;3026123;-67
2022/10/08 19:59:47;;;;;;;9.30;4.60;;;;;;;13.84;63.77;99895.58;24511;1333;3068711;-69
2022/10/08 20:02:16;;;;;;;6.40;4.70;;;;;;;13.83;63.90;99893.33;24539;1326;3026145;-67
2022/10/08 20:04:45;;;;;;;6.00;4.30;;;;;;;13.83;64.02;99890.94;24507;1340;3049470;-67
2022/10/08 20:07:15;;;;;;;13.90;5.10;;;;;;;13.79;64.17;99892.55;24494;1318;3027751;-68
2022/10/08 20:09:45;;;;;;;12.10;4.50;;;;;;;13.77;63.96;99891.83;24524;1325;3028287;-67
2022/10/08 20:12:14;;;;;;;10.40;5.20;;;;;;;13.74;64.06;99889.75;24625;1326;3027301;-69
2022/10/08 20:14:44;;;;;;;9.80;5.20;;;;;;;13.71;64.55;99894.30;24543;1333;3028070;-65
2022/10/08 20:17:14;;;;;;;6.90;4.30;;;;;;;13.69;64.39;99891.85;24462;1339;3026815;-65
2022/10/08 20:19:51;;;;;;;8.50;4.50;;;;;;;13.70;64.11;99888.61;24527;1333;3050396;-69
2022/10/08 20:22:20;;;;;;;8.30;4.20;;;;;;;13.66;64.65;99890.27;24571;1332;3026564;-68
2022/10/08 20:24:49;;;;;;;8.50;4.40;;;;;;;13.66;64.37;99889.55;24555;1334;3052385;-69
2022/10/08 20:27:19;;;;;;;9.50;4.50;;;;;;;13.67;64.36;99886.20;24524;1332;3026940;-68
2022/10/08 20:29:48;;;;;;;6.80;3.80;;;;;;;13.67;64.39;99881.75;24498;1337;3052061;-67
2022/10/08 20:32:17;;;;;;;6.50;3.90;;;;;;;13.63;64.38;99881.17;24509;1327;3027649;-66
2022/10/08 20:34:47;;;;;;;7.40;4.40;;;;;;;13.62;64.53;99879.98;24507;1325;3028066;-67
2022/10/08 20:37:16;;;;;;;7.20;4.00;;;;;;;13.63;64.32;99876.09;24586;1327;3053486;-68
2022/10/08 20:39:45;;;;;;;6.70;4.30;;;;;;;13.64;64.13;99876.52;24547;1326;3029131;-64
2022/10/08 20:42:14;;;;;;;10.40;5.10;;;;;;;13.64;64.05;99874.54;24555;1332;3055854;-66
2022/10/08 20:44:43;;;;;;;9.90;4.50;;;;;;;13.67;63.83;99872.05;24477;1340;3026214;-66
2022/10/08 20:47:12;;;;;;;8.40;3.90;;;;;;;13.63;64.58;99872.55;24560;1319;3049990;-71
2022/10/08 20:49:42;;;;;;;7.10;4.10;;;;;;;13.61;64.50;99871.09;24567;1326;3029578;-70
2022/10/08 20:52:11;;;;;;;7.90;4.60;;;;;;;13.56;64.69;99868.38;24520;1329;3028188;-69
2022/10/08 20:54:40;;;;;;;6.30;4.20;;;;;;;13.57;64.60;99862.17;24577;1333;3048641;-70
2022/10/08 20:57:09;;;;;;;7.90;4.10;;;;;;;13.56;64.37;99866.80;24507;1332;3026410;-68
2022/10/08 20:59:38;;;;;;;6.50;4.10;;;;;;;13.57;64.42;99869.72;24525;1327;3068391;-68
2022/10/08 21:02:08;;;;;;;7.70;4.00;;;;;;;13.57;64.51;99867.42;24559;1322;3027941;-68
2022/10/08 21:04:38;;;;;;;7.40;4.50;;;;;;;13.54;64.59;99861.17;24440;1335;3049979;-68
2022/10/08 21:07:07;;;;;;;6.50;4.00;;;;;;;13.52;64.48;99854.59;24521;1326;3028999;-69
2022/10/08 21:09:36;;;;;;;12.40;4.40;;;;;;;13.52;63.99;99854.21;24600;1318;3028037;-65
2022/10/08 21:12:07;;;;;;;9.50;4.30;;;;;;;13.54;63.99;99850.92;24542;1333;3050518;-71
2022/10/08 21:14:36;;;;;;;7.50;4.20;;;;;;;13.52;64.17;99851.23;24570;1332;3027408;-69
2022/10/08 21:17:06;;;;;;;7.50;3.90;;;;;;;13.48;64.49;99850.83;24549;1327;3053413;-68
2022/10/08 21:19:35;;;;;;;6.40;4.20;;;;;;;13.52;64.04;99847.53;24531;1326;3028485;-68
2022/10/08 21:22:06;;;;;;;9.60;4.20;;;;;;;13.52;64.31;99848.27;24492;1327;3052904;-69
2022/10/08 21:24:36;;;;;;;6.90;3.80;;;;;;;13.52;63.72;99844.20;24532;1333;3026920;-70
2022/10/08 21:27:05;;;;;;;7.90;4.40;;;;;;;13.55;63.92;99840.51;24494;1332;3027031;-67
2022/10/08 21:29:35;;;;;;;12.20;4.40;;;;;;;13.54;63.78;99836.15;24484;1326;3027375;-67
2022/10/08 21:32:04;;;;;;;5.10;3.50;;;;;;;13.54;63.84;99838.27;24547;1326;3052031;-70
2022/10/08 21:34:33;;;;;;;6.10;3.90;;;;;;;13.55;63.63;99835.92;24538;1343;3026796;-71
2022/10/08 21:37:02;;;;;;;7.20;4.10;;;;;;;13.54;63.71;99836.36;24588;1326;3026618;-67
2022/10/08 21:39:32;;;;;;;9.60;3.70;;;;;;;13.52;63.76;99834.73;24538;1336;3052060;-68
2022/10/08 21:42:01;;;;;;;5.90;3.70;;;;;;;13.53;63.58;99829.20;24483;1331;3027900;-70
2022/10/08 21:44:30;;;;;;;5.50;3.70;;;;;;;13.53;63.66;99827.58;24474;1336;3050421;-71
2022/10/08 21:46:59;;;;;;;7.70;3.70;;;;;;;13.53;63.69;99820.58;24511;1326;3026507;-71
2022/10/08 21:49:28;;;;;;;4.70;3.30;;;;;;;13.52;63.88;99818.55;24459;1333;3051935;-68
2022/10/08 21:51:57;;;;;;;8.00;3.80;;;;;;;13.48;64.14;99819.98;24456;1342;3027465;-69
2022/10/08 21:54:26;;;;;;;8.50;4.20;;;;;;;13.48;64.17;99815.11;24557;1326;3052798;-69
2022/10/08 21:56:59;;;;;;;6.90;3.80;;;;;;;13.47;64.08;99812.90;24512;1332;3028294;-67
2022/10/08 21:59:28;;;;;;;7.90;4.00;;;;;;;13.46;64.21;99809.58;24532;1336;3028805;-69
2022/10/08 22:01:57;;;;;;;10.00;4.00;;;;;;;13.45;64.39;99808.08;24478;1335;3052305;-68
2022/10/08 22:04:26;;;;;;;6.20;3.70;;;;;;;13.43;64.19;99806.45;24502;1329;3028301;-68
2022/10/08 22:07:00;;;;;;;9.00;4.50;;;;;;;13.39;64.32;99802.66;24507;1334;3056790;-67
2022/10/08 22:09:31;;;;;;;6.10;3.50;;;;;;;13.40;64.61;99798.75;24475;1336;3052490;-67
2022/10/08 22:12:01;;;;;;;6.60;4.30;;;;;;;13.37;64.38;99794.35;24514;1339;3027397;-68
2022/10/08 22:14:42;;;;;;;7.90;3.90;;;;;;;13.37;64.57;99792.61;24510;1338;3051280;-65
2022/10/08 22:17:11;;;;;;;6.90;4.20;;;;;;;13.37;64.37;99785.59;24488;1326;3028387;-65
2022/10/08 22:19:43;;;;;;;7.60;4.20;;;;;;;13.37;64.39;99786.39;24442;1326;3053332;-70
2022/10/08 22:22:12;;;;;;;5.80;3.80;;;;;;;13.35;64.54;99786.89;24518;1326;3028610;-68
2022/10/08 22:24:41;;;;;;;5.90;3.80;;;;;;;13.32;64.96;99784.08;24507;1336;3052029;-68
2022/10/08 22:27:10;;;;;;;6.70;3.60;;;;;;;13.32;64.55;99784.13;24472;1325;3028412;-66
2022/10/08 22:29:39;;;;;;;6.10;3.90;;;;;;;13.31;64.68;99786.13;24553;1324;3057676;-68
2022/10/08 22:32:08;;;;;;;8.70;4.20;;;;;;;13.28;64.76;99783.11;24541;1325;3029523;-67
2022/10/08 22:34:37;;;;;;;9.20;4.30;;;;;;;13.23;65.02;99780.80;24528;1324;3025073;-65
2022/10/08 22:37:06;;;;;;;6.70;3.90;;;;;;;13.19;64.89;99780.76;24444;1332;3056601;-69
2022/10/08 22:39:35;;;;;;;7.80;4.30;;;;;;;13.21;64.65;99780.45;24473;1332;3029050;-68
2022/10/08 22:42:04;;;;;;;7.20;4.10;;;;;;;13.18;65.01;99779.92;24540;1327;3029111;-68
2022/10/08 22:44:34;;;;;;;8.40;4.50;;;;;;;13.13;65.21;99775.88;24439;1333;3056551;-66
2022/10/08 22:47:03;;;;;;;8.70;4.60;;;;;;;13.10;65.35;99775.84;24538;1333;3028669;-66
2022/10/08 22:49:32;;;;;;;8.30;4.10;;;;;;;13.07;65.60;99774.83;24464;1334;3050932;-67
2022/10/08 22:52:01;;;;;;;10.60;4.60;;;;;;;13.08;65.44;99773.23;24488;1335;3026197;-69
2022/10/08 22:54:30;;;;;;;11.30;4.90;;;;;;;13.04;65.68;99773.12;24517;1325;3069956;-69
2022/10/08 22:56:59;;;;;;;7.40;4.40;;;;;;;13.04;65.27;99772.56;24551;1325;3026596;-69
2022/10/08 22:59:29;;;;;;;8.10;4.60;;;;;;;13.04;65.26;99768.52;24546;1333;3050420;-69
2022/10/08 23:01:58;;;;;;;8.50;4.50;;;;;;;13.02;65.47;99766.95;24547;1333;3027944;-68
2022/10/08 23:04:29;;;;;;;6.70;4.00;;;;;;;12.97;65.89;99766.20;24502;1333;3027343;-70
2022/10/08 23:06:58;;;;;;;7.80;4.10;;;;;;;12.97;65.72;99763.52;24580;1333;3029700;-67
2022/10/08 23:09:29;;;;;;;12.40;4.30;;;;;;;12.96;65.83;99764.84;24511;1333;3028634;-66
2022/10/08 23:11:58;;;;;;;6.80;4.40;;;;;;;12.96;65.93;99761.33;24546;1326;3028840;-68
2022/10/08 23:14:27;;;;;;;10.10;4.20;;;;;;;12.95;65.89;99761.23;24540;1334;3027709;-67
2022/10/08 23:16:59;;;;;;;8.30;4.50;;;;;;;12.95;65.52;99758.40;24544;1336;3052700;-64
2022/10/08 23:19:27;;;;;;;8.80;4.20;;;;;;;12.91;66.14;99760.08;24543;1326;3027460;-69
2022/10/08 23:21:57;;;;;;;7.70;4.50;;;;;;;12.89;66.08;99755.26;24452;1336;3055257;-66
2022/10/08 23:24:26;;;;;;;8.10;4.20;;;;;;;12.88;65.92;99758.32;24485;1333;3026092;-67
2022/10/08 23:26:55;;;;;;;7.40;4.00;;;;;;;12.85;66.03;99753.95;24487;1329;3049213;-69
2022/10/08 23:29:24;;;;;;;7.20;4.40;;;;;;;12.83;66.14;99753.76;24550;1335;3029278;-68
2022/10/08 23:31:53;;;;;;;8.20;4.50;;;;;;;12.79;66.40;99750.33;24486;1336;3026483;-65
2022/10/08 23:34:23;;;;;;;10.50;4.60;;;;;;;12.79;66.33;99751.73;24512;1335;3050402;-68
2022/10/08 23:36:52;;;;;;;8.50;4.20;;;;;;;12.79;66.17;99749.23;24462;1326;3030152;-67
2022/10/08 23:39:22;;;;;;;7.80;4.40;;;;;;;12.77;66.17;99744.10;24539;1332;3068459;-68
2022/10/08 23:41:50;;;;;;;7.60;4.90;;;;;;;12.72;66.37;99741.06;24492;1325;3025830;-73
2022/10/08 23:44:21;;;;;;;10.90;4.50;;;;;;;12.68;66.65;99738.19;24530;1330;3051062;-68
2022/10/08 23:46:50;;;;;;;7.30;4.00;;;;;;;12.68;66.57;99738.55;24574;1326;3028842;-70
2022/10/08 23:49:18;;;;;;;7.00;4.20;;;;;;;12.69;66.59;99737.56;24528;1326;3052540;-67
2022/10/08 23:51:47;;;;;;;7.40;4.00;;;;;;;12.69;66.28;99733.73;24525;1333;3029815;-67
2022/10/08 23:54:16;;;;;;;7.40;4.10;;;;;;;12.67;66.50;99730.34;24507;1326;3051820;-68
2022/10/08 23:56:45;;;;;;;10.70;4.00;;;;;;;12.66;66.71;99735.19;24491;1326;3026065;-67
2022/10/08 23:59:14;;;;;;;8.10;4.60;;;;;;;12.64;66.41;99731.62;24539;1333;3052440;-65
